createdAt,value
2022-12-14T00:01:27.663Z,96799.47
2022-12-14T00:03:53.980Z,96797.09
2022-12-14T00:06:20.189Z,96796.81
2022-12-14T00:08:46.398Z,96787.47
2022-12-14T00:11:12.578Z,96791.47
2022-12-14T00:13:38.732Z,96797.03
2022-12-14T00:16:04.934Z,96796.28
2022-12-14T00:18:31.115Z,96792.00
2022-12-14T00:20:59.740Z,96799.97
2022-12-14T00:23:25.958Z,96802.13
2022-12-14T00:25:52.117Z,96797.03
2022-12-14T00:28:18.281Z,96789.06
2022-12-14T00:30:44.555Z,96789.59
2022-12-14T00:33:10.792Z,96781.06
2022-12-14T00:35:36.990Z,96771.50
2022-12-14T00:38:03.331Z,96761.66
2022-12-14T00:40:29.542Z,96758.44
2022-12-14T00:42:55.827Z,96759.78
2022-12-14T00:45:22.041Z,96761.91
2022-12-14T00:47:48.233Z,96760.31
2022-12-14T00:50:14.740Z,96763.25
2022-12-14T00:52:40.927Z,96757.66
2022-12-14T00:55:07.096Z,96765.38
2022-12-14T00:57:33.348Z,96762.97
2022-12-14T00:59:59.694Z,96753.91
2022-12-14T01:02:25.992Z,96748.31
2022-12-14T01:04:52.270Z,96747.50
2022-12-14T01:07:18.466Z,96756.31
2022-12-14T01:09:44.747Z,96760.03
2022-12-14T01:12:10.997Z,96752.84
2022-12-14T01:14:37.188Z,96753.38
2022-12-14T01:17:03.406Z,96748.31
2022-12-14T01:19:29.641Z,96743.50
2022-12-14T01:21:55.858Z,96748.03
2022-12-14T01:24:22.093Z,96736.56
2022-12-14T01:26:48.342Z,96736.56
2022-12-14T01:29:14.645Z,96734.97
2022-12-14T01:31:41.023Z,96737.91
2022-12-14T01:34:07.321Z,96731.25
2022-12-14T01:36:33.549Z,96729.13
2022-12-14T01:38:59.769Z,96727.00
2022-12-14T01:41:25.977Z,96729.41
2022-12-14T01:43:52.185Z,96723.53
2022-12-14T01:46:18.399Z,96728.34
2022-12-14T01:48:44.622Z,96725.94
2022-12-14T01:51:10.973Z,96718.22
2022-12-14T01:53:37.419Z,96731.00
2022-12-14T01:56:03.649Z,96723.56
2022-12-14T01:58:29.926Z,96721.13
2022-12-14T02:00:56.149Z,96716.34
2022-12-14T02:03:22.767Z,96715.03
2022-12-14T02:05:48.995Z,96713.44
2022-12-14T02:08:15.236Z,96712.09
2022-12-14T02:10:41.455Z,96707.03
2022-12-14T02:13:07.777Z,96701.97
2022-12-14T02:15:33.996Z,96701.19
2022-12-14T02:18:00.201Z,96695.06
2022-12-14T02:20:26.407Z,96691.84
2022-12-14T02:22:52.721Z,96692.13
2022-12-14T02:25:18.897Z,96695.03
2022-12-14T02:27:45.093Z,96689.97
2022-12-14T02:30:11.368Z,96686.25
2022-12-14T02:32:37.562Z,96675.03
2022-12-14T02:35:03.775Z,96677.44
2022-12-14T02:37:29.954Z,96677.97
2022-12-14T02:39:56.166Z,96672.63
2022-12-14T02:42:25.480Z,96669.41
2022-12-14T02:44:51.680Z,96673.69
2022-12-14T02:47:17.877Z,96668.63
2022-12-14T02:49:44.114Z,96659.28
2022-12-14T02:52:15.776Z,96660.59
2022-12-14T02:54:42.072Z,96657.13
2022-12-14T02:57:08.273Z,96655.28
2022-12-14T02:59:34.645Z,96661.41
2022-12-14T03:02:00.912Z,96649.94
2022-12-14T03:04:27.213Z,96651.53
2022-12-14T03:06:53.453Z,96649.94
2022-12-14T03:09:19.664Z,96642.50
2022-12-14T03:11:45.931Z,96645.41
2022-12-14T03:14:12.145Z,96644.09
2022-12-14T03:16:38.369Z,96645.16
2022-12-14T03:19:04.603Z,96639.31
2022-12-14T03:21:30.771Z,96636.66
2022-12-14T03:23:57.153Z,96635.06
2022-12-14T03:26:23.368Z,96621.22
2022-12-14T03:28:49.597Z,96625.50
2022-12-14T03:31:15.809Z,96623.88
2022-12-14T03:33:42.051Z,96621.78
2022-12-14T03:36:08.238Z,96617.00
2022-12-14T03:38:34.417Z,96615.38
2022-12-14T03:41:00.600Z,96615.38
2022-12-14T03:43:27.264Z,96611.13
2022-12-14T03:45:53.776Z,96614.84
2022-12-14T03:48:20.159Z,96611.41
2022-12-14T03:50:46.540Z,96602.88
2022-12-14T03:53:12.742Z,96601.53
2022-12-14T03:55:38.947Z,96597.28
2022-12-14T03:58:05.148Z,96591.44
2022-12-14T04:00:31.374Z,96582.91
2022-12-14T04:02:57.599Z,96580.53
2022-12-14T04:05:27.056Z,96582.13
2022-12-14T04:07:53.328Z,96576.81
2022-12-14T04:10:19.553Z,96581.88
2022-12-14T04:12:51.066Z,96576.56
2022-12-14T04:15:17.681Z,96572.03
2022-12-14T04:17:43.900Z,96573.91
2022-12-14T04:20:10.243Z,96564.84
2022-12-14T04:22:36.474Z,96553.19
2022-12-14T04:25:02.664Z,96557.97
2022-12-14T04:27:29.002Z,96550.50
2022-12-14T04:29:55.216Z,96537.72
2022-12-14T04:32:21.446Z,96537.72
2022-12-14T04:34:48.003Z,96530.53
2022-12-14T04:37:14.221Z,96527.59
2022-12-14T04:39:40.454Z,96524.97
2022-12-14T04:42:06.614Z,96523.06
2022-12-14T04:44:32.841Z,96526.53
2022-12-14T04:46:59.053Z,96533.16
2022-12-14T04:49:25.239Z,96524.34
2022-12-14T04:51:51.424Z,96522.75
2022-12-14T04:54:17.630Z,96512.63
2022-12-14T04:56:43.813Z,96509.91
2022-12-14T04:59:10.021Z,96511.50
2022-12-14T05:01:36.645Z,96511.75
2022-12-14T05:04:02.940Z,96520.00
2022-12-14T05:06:29.161Z,96528.78
2022-12-14T05:08:55.352Z,96522.09
2022-12-14T05:11:51.871Z,96518.91
2022-12-14T05:14:07.750Z,96510.09
2022-12-14T05:16:33.934Z,96504.50
2022-12-14T05:19:00.186Z,96505.03
2022-12-14T05:21:26.480Z,96505.03
2022-12-14T05:23:52.710Z,96500.50
2022-12-14T05:26:19.022Z,96494.38
2022-12-14T05:28:50.257Z,96501.81
2022-12-14T05:31:16.950Z,96489.81
2022-12-14T05:33:43.171Z,96496.97
2022-12-14T05:36:09.388Z,96482.31
2022-12-14T05:38:35.591Z,96492.69
2022-12-14T05:41:01.866Z,96461.03
2022-12-14T05:43:28.220Z,96476.72
2022-12-14T05:45:54.919Z,96477.25
2022-12-14T05:48:21.157Z,96468.47
2022-12-14T05:50:47.379Z,96470.03
2022-12-14T05:53:13.580Z,96470.59
2022-12-14T05:55:39.827Z,96463.94
2022-12-14T05:58:06.013Z,96467.97
2022-12-14T06:00:32.295Z,96467.72
2022-12-14T06:02:58.495Z,96466.66
2022-12-14T06:05:24.771Z,96467.22
2022-12-14T06:07:51.106Z,96470.16
2022-12-14T06:10:17.304Z,96465.13
2022-12-14T06:12:43.567Z,96458.47
2022-12-14T06:15:09.760Z,96459.81
2022-12-14T06:17:36.039Z,96452.06
2022-12-14T06:20:02.249Z,96443.31
2022-12-14T06:22:28.448Z,96432.41
2022-12-14T06:24:54.661Z,96431.88
2022-12-14T06:27:21.047Z,96430.03
2022-12-14T06:29:47.231Z,96424.16
2022-12-14T06:32:13.461Z,96422.03
2022-12-14T06:34:42.297Z,96424.69
2022-12-14T06:37:08.872Z,96428.44
2022-12-14T06:39:35.185Z,96418.06
2022-12-14T06:42:01.426Z,96418.34
2022-12-14T06:44:27.598Z,96415.16
2022-12-14T06:46:53.889Z,96412.78
2022-12-14T06:49:20.116Z,96401.31
2022-12-14T06:51:46.325Z,96406.91
2022-12-14T06:54:13.691Z,96412.53
2022-12-14T06:56:39.983Z,96404.53
2022-12-14T06:59:06.153Z,96402.41
2022-12-14T07:01:32.441Z,96406.63
2022-12-14T07:03:58.742Z,96396.53
2022-12-14T07:06:24.967Z,96392.81
2022-12-14T07:08:51.142Z,96394.41
2022-12-14T07:11:17.333Z,96391.00
2022-12-14T07:13:43.579Z,96396.06
2022-12-14T07:16:09.829Z,96404.53
2022-12-14T07:18:36.136Z,96398.69
2022-12-14T07:21:02.416Z,96378.47
2022-12-14T07:23:28.637Z,96388.56
2022-12-14T07:25:54.899Z,96391.19
2022-12-14T07:28:21.112Z,96379.94
2022-12-14T07:30:47.313Z,96380.97
2022-12-14T07:33:13.521Z,96377.22
2022-12-14T07:35:39.767Z,96381.94
2022-12-14T07:38:06.184Z,96381.34
2022-12-14T07:40:32.432Z,96385.56
2022-12-14T07:42:58.609Z,96380.72
2022-12-14T07:45:24.831Z,96377.44
2022-12-14T07:47:51.037Z,96376.34
2022-12-14T07:50:17.200Z,96376.06
2022-12-14T07:52:43.413Z,96368.59
2022-12-14T07:55:09.741Z,96369.66
2022-12-14T07:57:35.974Z,96360.88
2022-12-14T08:00:02.200Z,96358.75
2022-12-14T08:02:28.545Z,96352.41
2022-12-14T08:04:54.837Z,96354.53
2022-12-14T08:07:21.025Z,96347.59
2022-12-14T08:09:47.211Z,96348.41
2022-12-14T08:12:13.470Z,96354.03
2022-12-14T08:14:39.793Z,96342.56
2022-12-14T08:17:06.059Z,96352.16
2022-12-14T08:19:32.281Z,96350.84
2022-12-14T08:21:58.573Z,96355.66
2022-12-14T08:24:24.802Z,96345.28
2022-12-14T08:26:51.129Z,96349.53
2022-12-14T08:29:17.387Z,96341.03
2022-12-14T08:31:43.688Z,96339.41
2022-12-14T08:34:10.058Z,96315.28
2022-12-14T08:36:36.327Z,96328.25
2022-12-14T08:39:02.527Z,96342.38
2022-12-14T08:41:28.750Z,96337.03
2022-12-14T08:43:54.989Z,96342.38
2022-12-14T08:46:21.276Z,96343.44
2022-12-14T08:48:47.474Z,96346.13
2022-12-14T08:51:13.744Z,96346.91
2022-12-14T08:53:40.148Z,96351.16
2022-12-14T08:56:06.372Z,96345.84
2022-12-14T08:58:32.577Z,96338.63
2022-12-14T09:00:58.785Z,96333.31
2022-12-14T09:03:25.028Z,96342.38
2022-12-14T09:05:51.219Z,96338.63
2022-12-14T09:08:19.744Z,96337.03
2022-12-14T09:10:47.138Z,96340.78
2022-12-14T09:13:13.393Z,96346.91
2022-12-14T09:15:39.754Z,96332.25
2022-12-14T09:18:06.011Z,96334.66
2022-12-14T09:20:32.237Z,96338.91
2022-12-14T09:22:58.424Z,96341.59
2022-12-14T09:25:24.597Z,96338.63
2022-12-14T09:27:50.798Z,96331.69
2022-12-14T09:30:20.426Z,96342.06
2022-12-14T09:32:50.828Z,96334.59
2022-12-14T09:35:17.102Z,96342.31
2022-12-14T09:37:43.357Z,96339.66
2022-12-14T09:40:09.586Z,96331.13
2022-12-14T09:42:35.854Z,96328.47
2022-12-14T09:45:02.138Z,96334.84
2022-12-14T09:47:28.330Z,96332.19
2022-12-14T09:49:54.778Z,96328.47
2022-12-14T09:52:20.974Z,96324.69
2022-12-14T09:54:50.098Z,96318.28
2022-12-14T09:57:16.600Z,96316.13
2022-12-14T09:59:42.829Z,96316.38
2022-12-14T10:02:37.306Z,96309.69
2022-12-14T10:04:55.278Z,96315.53
2022-12-14T10:07:21.465Z,96308.06
2022-12-14T10:09:47.685Z,96308.06
2022-12-14T10:12:13.924Z,96306.47
2022-12-14T10:14:44.335Z,96311.28
2022-12-14T10:17:10.917Z,96300.38
2022-12-14T10:19:37.187Z,96305.72
2022-12-14T10:22:03.421Z,96295.34
2022-12-14T10:24:29.636Z,96296.94
2022-12-14T10:26:55.868Z,96301.19
2022-12-14T10:29:22.044Z,96294.50
2022-12-14T10:31:48.332Z,96297.94
2022-12-14T10:34:14.547Z,96300.31
2022-12-14T10:36:40.788Z,96301.13
2022-12-14T10:39:07.018Z,96298.19
2022-12-14T10:41:33.201Z,96294.47
2022-12-14T10:43:59.394Z,96291.50
2022-12-14T10:46:25.581Z,96295.75
2022-12-14T10:48:51.802Z,96294.16
2022-12-14T10:51:18.054Z,96294.69
2022-12-14T10:53:44.256Z,96297.06
2022-12-14T10:56:10.529Z,96294.13
2022-12-14T10:58:36.758Z,96288.78
2022-12-14T11:01:03.043Z,96287.97
2022-12-14T11:03:29.432Z,96286.91
2022-12-14T11:05:55.723Z,96288.22
2022-12-14T11:08:21.920Z,96279.94
2022-12-14T11:10:48.180Z,96275.44
2022-12-14T11:13:14.367Z,96281.56
2022-12-14T11:15:40.616Z,96285.50
2022-12-14T11:18:06.997Z,96274.56
2022-12-14T11:20:33.298Z,96288.41
2022-12-14T11:22:59.638Z,96284.69
2022-12-14T11:25:25.814Z,96283.31
2022-12-14T11:27:52.045Z,96274.25
2022-12-14T11:30:18.243Z,96271.00
2022-12-14T11:32:44.509Z,96272.31
2022-12-14T11:35:10.719Z,96273.91
2022-12-14T11:37:36.972Z,96276.56
2022-12-14T11:40:03.307Z,96272.56
2022-12-14T11:42:29.515Z,96268.00
2022-12-14T11:44:55.740Z,96267.22
2022-12-14T11:47:21.942Z,96276.78
2022-12-14T11:49:48.142Z,96264.25
2022-12-14T11:52:14.425Z,96263.19
2022-12-14T11:54:40.654Z,96265.56
2022-12-14T11:57:06.903Z,96267.16
2022-12-14T11:59:33.111Z,96269.81
2022-12-14T12:01:59.457Z,96260.72
2022-12-14T12:04:25.750Z,96268.44
2022-12-14T12:06:51.945Z,96259.09
2022-12-14T12:09:18.112Z,96260.91
2022-12-14T12:11:44.336Z,96257.94
2022-12-14T12:14:10.490Z,96256.59
2022-12-14T12:16:36.824Z,96253.63
2022-12-14T12:19:07.883Z,96255.78
2022-12-14T12:21:38.740Z,96256.38
2022-12-14T12:24:05.038Z,96255.03
2022-12-14T12:26:31.286Z,96255.03
2022-12-14T12:28:57.448Z,96259.59
2022-12-14T12:31:23.886Z,96256.13
2022-12-14T12:33:50.129Z,96244.66
2022-12-14T12:36:21.895Z,96248.66
2022-12-14T12:38:50.401Z,96251.03
2022-12-14T12:41:16.652Z,96256.88
2022-12-14T12:43:42.908Z,96250.44
2022-12-14T12:46:16.558Z,96244.53
2022-12-14T12:48:42.978Z,96246.94
2022-12-14T12:51:09.176Z,96251.97
2022-12-14T12:53:35.448Z,96249.25
2022-12-14T12:56:01.747Z,96252.94
2022-12-14T12:58:28.288Z,96253.16
2022-12-14T13:00:55.012Z,96244.00
2022-12-14T13:03:21.296Z,96253.31
2022-12-14T13:05:48.643Z,96243.22
2022-12-14T13:08:15.356Z,96242.56
2022-12-14T13:10:50.566Z,96242.34
2022-12-14T13:13:27.702Z,96239.47
2022-12-14T13:15:53.991Z,96239.56
2022-12-14T13:18:41.191Z,96228.50
2022-12-14T13:21:06.569Z,96239.22
2022-12-14T13:23:48.098Z,96229.81
2022-12-14T13:26:28.127Z,96239.28
2022-12-14T13:29:00.532Z,96237.91
2022-12-14T13:31:26.764Z,96235.81
2022-12-14T13:33:53.055Z,96229.00
2022-12-14T13:36:19.266Z,96231.09
2022-12-14T13:38:45.451Z,96228.88
2022-12-14T13:41:11.738Z,96229.13
2022-12-14T13:43:37.918Z,96230.16
2022-12-14T13:46:04.141Z,96225.00
2022-12-14T13:48:30.643Z,96225.41
2022-12-14T13:51:01.506Z,96224.41
2022-12-14T13:53:28.713Z,96222.63
2022-12-14T13:55:54.970Z,96217.28
2022-12-14T13:58:21.261Z,96219.53
2022-12-14T14:00:47.591Z,96219.59
2022-12-14T14:03:14.063Z,96222.88
2022-12-14T14:05:40.302Z,96221.06
2022-12-14T14:08:06.489Z,96221.34
2022-12-14T14:10:32.662Z,96224.84
2022-12-14T14:12:58.857Z,96227.81
2022-12-14T14:15:26.441Z,96226.50
2022-12-14T14:17:52.835Z,96231.34
2022-12-14T14:20:19.028Z,96234.63
2022-12-14T14:22:45.243Z,96227.19
2022-12-14T14:25:11.456Z,96232.03
2022-12-14T14:27:37.701Z,96232.91
2022-12-14T14:30:04.080Z,96223.59
2022-12-14T14:32:30.398Z,96231.41
2022-12-14T14:34:56.653Z,96220.50
2022-12-14T14:37:22.829Z,96219.22
2022-12-14T14:40:00.697Z,96221.41
2022-12-14T14:42:33.731Z,96220.09
2022-12-14T14:45:00.001Z,96224.16
2022-12-14T14:47:26.350Z,96223.94
2022-12-14T14:49:52.771Z,96221.06
2022-12-14T14:52:18.968Z,96224.59
2022-12-14T14:57:31.360Z,96228.44
2022-12-14T14:59:57.586Z,96225.56
2022-12-14T15:02:23.794Z,96226.91
2022-12-14T15:04:51.529Z,96223.22
2022-12-14T15:07:17.952Z,96221.16
2022-12-14T15:09:44.205Z,96225.22
2022-12-14T15:12:10.375Z,96231.66
2022-12-14T15:14:36.543Z,96227.75
2022-12-14T15:17:02.787Z,96229.72
2022-12-14T15:19:28.945Z,96229.28
2022-12-14T15:21:55.190Z,96234.41
2022-12-14T15:24:21.392Z,96235.75
2022-12-14T15:26:47.645Z,96228.34
2022-12-14T15:29:13.845Z,96235.03
2022-12-14T15:31:40.269Z,96230.00
2022-12-14T15:34:06.537Z,96233.75
2022-12-14T15:36:32.758Z,96230.56
2022-12-14T15:38:58.969Z,96234.28
2022-12-14T15:41:25.277Z,96231.91
2022-12-14T15:43:56.448Z,96230.34
2022-12-14T15:46:24.378Z,96226.38
2022-12-14T15:48:50.702Z,96237.31
2022-12-14T15:51:16.896Z,96225.38
2022-12-14T15:53:43.115Z,96229.91
2022-12-14T15:56:16.704Z,96233.63
2022-12-14T15:58:42.924Z,96235.81
2022-12-14T16:01:09.206Z,96237.97
2022-12-14T16:03:35.514Z,96242.00
2022-12-14T16:06:01.728Z,96240.41
2022-12-14T16:08:27.949Z,96252.94
2022-12-14T16:10:54.166Z,96247.91
2022-12-14T16:13:20.401Z,96253.53
2022-12-14T16:15:46.630Z,96258.06
2022-12-14T16:18:15.650Z,96268.44
2022-12-14T16:20:41.964Z,96269.25
2022-12-14T16:23:08.165Z,96272.72
2022-12-14T16:25:34.396Z,96272.72
2022-12-14T16:28:00.573Z,96273.78
2022-12-14T16:30:26.866Z,96267.69
2022-12-14T16:32:53.287Z,96266.06
2022-12-14T16:35:20.692Z,96262.34
2022-12-14T16:37:46.927Z,96268.72
2022-12-14T16:40:16.385Z,96265.56
2022-12-14T16:42:42.788Z,96268.50
2022-12-14T16:45:08.982Z,96261.31
2022-12-14T16:47:35.164Z,96269.31
2022-12-14T16:50:01.372Z,96268.78
2022-12-14T16:52:27.563Z,96272.81
2022-12-14T16:54:53.778Z,96269.88
2022-12-14T16:57:20.390Z,96277.09
2022-12-14T16:59:46.822Z,96272.03
2022-12-14T17:02:17.941Z,96280.03
2022-12-14T17:04:44.472Z,96283.47
2022-12-14T17:07:10.747Z,96283.47
2022-12-14T17:09:36.939Z,96288.59
2022-12-14T17:12:03.234Z,96296.59
2022-12-14T17:14:29.456Z,96291.25
2022-12-14T17:16:55.779Z,96292.06
2022-12-14T17:19:22.044Z,96295.28
2022-12-14T17:21:48.328Z,96297.44
2022-12-14T17:24:14.702Z,96300.41
2022-12-14T17:26:40.918Z,96297.22
2022-12-14T17:29:07.233Z,96300.16
2022-12-14T17:31:33.533Z,96310.31
2022-12-14T17:33:59.830Z,96314.38
2022-12-14T17:36:26.037Z,96316.75
2022-12-14T17:38:52.297Z,96311.91
2022-12-14T17:41:18.503Z,96310.59
2022-12-14T17:43:49.894Z,96317.03
2022-12-14T17:46:20.239Z,96315.41
2022-12-14T17:48:46.502Z,96317.53
2022-12-14T17:51:12.915Z,96322.09
2022-12-14T17:53:39.152Z,96322.34
2022-12-14T17:56:05.373Z,96332.25
2022-12-14T17:58:31.643Z,96335.69
2022-12-14T18:00:57.872Z,96331.72
2022-12-14T18:03:24.135Z,96335.75
2022-12-14T18:05:50.552Z,96331.50
2022-12-14T18:08:16.805Z,96342.72
2022-12-14T18:10:43.086Z,96333.94
2022-12-14T18:13:09.366Z,96342.22
2022-12-14T18:15:35.632Z,96337.94
2022-12-14T18:18:01.851Z,96339.81
2022-12-14T18:20:28.067Z,96340.88
2022-12-14T18:22:54.268Z,96343.03
2022-12-14T18:25:20.468Z,96349.22
2022-12-14T18:27:46.710Z,96350.59
2022-12-14T18:30:14.010Z,96354.16
2022-12-14T18:32:40.228Z,96357.97
2022-12-14T18:35:06.414Z,96368.69
2022-12-14T18:37:33.043Z,96370.34
2022-12-14T18:39:59.346Z,96383.44
2022-12-14T18:42:25.519Z,96382.41
2022-12-14T18:44:51.702Z,96379.78
2022-12-14T18:47:40.788Z,96382.97
2022-12-14T18:50:04.086Z,96377.13
2022-12-14T18:52:30.308Z,96378.22
2022-12-14T18:54:56.465Z,96376.59
2022-12-14T18:57:22.676Z,96375.81
2022-12-14T18:59:48.886Z,96371.84
2022-12-14T19:02:15.299Z,96368.19
2022-12-14T19:04:41.587Z,96384.69
2022-12-14T19:07:07.770Z,96386.84
2022-12-14T19:09:33.921Z,96386.59
2022-12-14T19:12:00.089Z,96391.41
2022-12-14T19:14:26.249Z,96395.91
2022-12-14T19:16:52.453Z,96396.41
2022-12-14T19:19:22.805Z,96391.88
2022-12-14T19:21:49.846Z,96387.59
2022-12-14T19:24:16.072Z,96390.72
2022-12-14T19:26:42.303Z,96389.66
2022-12-14T19:29:08.508Z,96384.31
2022-12-14T19:31:34.732Z,96387.78
2022-12-14T19:34:00.945Z,96395.19
2022-12-14T19:36:27.256Z,96399.41
2022-12-14T19:38:53.568Z,96395.13
2022-12-14T19:41:19.835Z,96401.72
2022-12-14T19:43:46.099Z,96389.22
2022-12-14T19:46:12.383Z,96401.66
2022-12-14T19:48:38.625Z,96404.03
2022-12-14T19:51:04.891Z,96408.50
2022-12-14T19:53:31.291Z,96406.09
2022-12-14T19:55:57.818Z,96402.59
2022-12-14T19:58:24.067Z,96400.97
2022-12-14T20:00:50.242Z,96398.03
2022-12-14T20:03:16.598Z,96399.91
2022-12-14T20:05:42.960Z,96404.16
2022-12-14T20:08:09.152Z,96414.25
2022-12-14T20:10:35.348Z,96409.44
2022-12-14T20:13:01.567Z,96415.28
2022-12-14T20:15:27.754Z,96422.22
2022-12-14T20:17:53.941Z,96410.47
2022-12-14T20:20:20.127Z,96416.63
2022-12-14T20:22:46.314Z,96416.34
2022-12-14T20:25:12.512Z,96431.25
2022-12-14T20:27:40.909Z,96419.28
2022-12-14T20:30:07.403Z,96423.00
2022-12-14T20:32:33.606Z,96424.91
2022-12-14T20:34:59.856Z,96423.28
2022-12-14T20:37:26.054Z,96429.19
2022-12-14T20:39:52.292Z,96433.75
2022-12-14T20:42:18.509Z,96430.59
2022-12-14T20:44:44.724Z,96434.63
2022-12-14T20:47:15.762Z,96436.00
2022-12-14T20:49:42.031Z,96433.59
2022-12-14T20:52:08.217Z,96437.59
2022-12-14T20:54:34.413Z,96435.22
2022-12-14T20:57:00.590Z,96437.88
2022-12-14T20:59:26.787Z,96437.09
2022-12-14T21:01:56.328Z,96440.03
2022-12-14T21:04:23.060Z,96445.63
2022-12-14T21:06:49.235Z,96449.88
2022-12-14T21:09:15.443Z,96449.88
2022-12-14T21:11:41.818Z,96452.03
2022-12-14T21:14:08.038Z,96452.31
2022-12-14T21:16:34.277Z,96455.47
2022-12-14T21:19:00.546Z,96462.44
2022-12-14T21:21:26.736Z,96458.69
2022-12-14T21:23:52.919Z,96466.94
2022-12-14T21:26:19.089Z,96468.03
2022-12-14T21:28:45.328Z,96460.31
2022-12-14T21:31:11.628Z,96463.75
2022-12-14T21:33:37.854Z,96470.97
2022-12-14T21:36:04.229Z,96465.91
2022-12-14T21:38:30.411Z,96458.72
2022-12-14T21:40:56.607Z,96464.03
2022-12-14T21:43:22.820Z,96467.78
2022-12-14T21:45:49.063Z,96460.56
2022-12-14T21:48:15.229Z,96456.31
2022-12-14T21:50:41.436Z,96458.72
2022-12-14T21:53:07.663Z,96461.91
2022-12-14T21:55:33.851Z,96465.66
2022-12-14T21:58:00.172Z,96461.38
2022-12-14T22:00:26.370Z,96465.38
2022-12-14T22:02:52.793Z,96471.19
2022-12-14T22:05:19.062Z,96464.28
2022-12-14T22:07:45.278Z,96474.94
2022-12-14T22:10:11.493Z,96480.00
2022-12-14T22:12:37.689Z,96482.66
2022-12-14T22:15:04.009Z,96484.25
2022-12-14T22:17:30.184Z,96488.78
2022-12-14T22:19:57.516Z,96494.13
2022-12-14T22:22:23.775Z,96492.25
2022-12-14T22:24:50.012Z,96497.84
2022-12-14T22:27:16.227Z,96497.84
2022-12-14T22:29:42.430Z,96497.06
2022-12-14T22:32:08.826Z,96492.78
2022-12-14T22:34:35.098Z,96496.53
2022-12-14T22:37:01.290Z,96507.19
2022-12-14T22:39:27.475Z,96510.66
2022-12-14T22:41:53.676Z,96505.59
2022-12-14T22:44:19.949Z,96517.03
2022-12-14T22:46:46.147Z,96523.44
2022-12-14T22:49:12.339Z,96521.59
2022-12-14T22:51:38.549Z,96518.94
2022-12-14T22:54:04.705Z,96515.47
2022-12-14T22:56:30.869Z,96519.97
2022-12-14T22:58:57.085Z,96512.00
2022-12-14T23:01:23.402Z,96524.25
2022-12-14T23:03:49.781Z,96529.59
2022-12-14T23:06:16.063Z,96528.78
2022-12-14T23:08:42.247Z,96531.97
2022-12-14T23:11:08.627Z,96542.63
2022-12-14T23:13:34.812Z,96538.06
2022-12-14T23:16:01.069Z,96537.59
2022-12-14T23:18:27.273Z,96524.25
2022-12-14T23:20:53.549Z,96530.38
2022-12-14T23:23:19.783Z,96523.97
2022-12-14T23:25:45.982Z,96522.66
2022-12-14T23:28:12.170Z,96524.25
2022-12-14T23:30:38.466Z,96525.31
2022-12-14T23:33:04.752Z,96517.31
2022-12-14T23:35:30.998Z,96518.41
2022-12-14T23:37:57.201Z,96514.13
2022-12-14T23:40:23.421Z,96516.50
2022-12-14T23:42:49.615Z,96510.41
2022-12-14T23:45:15.832Z,96505.09
2022-12-14T23:47:42.014Z,96505.84
2022-12-14T23:50:08.195Z,96512.78
2022-12-14T23:52:34.399Z,96519.19
2022-12-14T23:55:01.019Z,96518.41
2022-12-14T23:57:27.225Z,96515.75
2022-12-14T23:59:53.422Z,96518.94
